createdAt,value
2022-08-07T03:02:36.463Z,58.20
2022-08-07T03:05:11.703Z,58.30
2022-08-07T03:08:07.618Z,58.30
2022-08-07T03:10:40.709Z,58.60
2022-08-07T03:13:19.674Z,58.70
2022-08-07T03:15:58.271Z,58.90
2022-08-07T03:18:34.965Z,59.00
2022-08-07T03:21:08.480Z,59.40
2022-08-07T03:24:19.836Z,59.40
2022-08-07T03:26:33.188Z,59.40
2022-08-07T03:29:10.997Z,59.40
2022-08-07T03:31:46.258Z,59.50
2022-08-07T03:34:22.316Z,59.30
2022-08-07T03:36:54.987Z,59.30
2022-08-07T03:39:45.752Z,59.40
2022-08-07T03:42:18.866Z,59.40
2022-08-07T03:44:53.613Z,59.50
2022-08-07T03:47:27.988Z,59.30
2022-08-07T03:49:59.820Z,59.60
2022-08-07T03:52:34.221Z,59.60
2022-08-07T03:55:07.853Z,59.50
2022-08-07T03:58:34.023Z,59.80
2022-08-07T04:00:35.366Z,60.40
2022-08-07T04:03:05.083Z,60.30
2022-08-07T04:05:45.565Z,60.40
2022-08-07T04:08:21.511Z,60.50
2022-08-07T04:10:54.831Z,60.90
2022-08-07T04:14:33.058Z,61.40
2022-08-07T04:16:32.365Z,61.10
2022-08-07T04:19:12.618Z,60.60
2022-08-07T04:21:48.026Z,60.80
2022-08-07T04:24:34.152Z,60.00
2022-08-07T04:27:20.592Z,60.40
2022-08-07T04:30:01.650Z,60.30
2022-08-07T04:33:00.675Z,60.20
2022-08-07T04:35:35.107Z,60.60
2022-08-07T04:38:07.978Z,60.60
2022-08-07T04:40:51.338Z,60.40
2022-08-07T04:44:09.982Z,60.50
2022-08-07T04:46:20.158Z,60.50
2022-08-07T04:49:14.884Z,60.10
2022-08-07T04:51:55.905Z,60.00
2022-08-07T04:54:33.326Z,59.80
2022-08-07T04:58:09.905Z,60.10
2022-08-07T05:00:09.920Z,60.10
2022-08-07T05:02:53.547Z,60.30
2022-08-07T05:05:53.632Z,60.10
2022-08-07T05:08:45.491Z,60.20
2022-08-07T05:11:19.377Z,60.10
2022-08-07T05:14:54.549Z,60.20
2022-08-07T05:16:47.468Z,60.40
2022-08-07T05:19:25.686Z,60.50
2022-08-07T05:22:12.752Z,60.40
2022-08-07T05:24:57.177Z,60.60
2022-08-07T05:28:05.976Z,60.10
2022-08-07T05:30:21.155Z,60.00
2022-08-07T05:33:03.253Z,59.80
2022-08-07T05:35:41.747Z,59.90
2022-08-07T05:38:12.418Z,60.00
2022-08-07T05:41:02.257Z,59.50
2022-08-07T05:44:07.732Z,59.40
2022-08-07T05:46:32.285Z,59.60
2022-08-07T05:49:01.301Z,59.50
2022-08-07T05:51:42.545Z,59.40
2022-08-07T05:54:29.987Z,59.90
2022-08-07T05:56:59.975Z,59.40
2022-08-07T05:59:46.624Z,59.50
2022-08-07T06:02:28.542Z,59.70
2022-08-07T06:05:03.371Z,59.70
2022-08-07T06:08:14.537Z,59.70
2022-08-07T06:10:24.414Z,59.40
2022-08-07T06:12:52.481Z,59.80
2022-08-07T06:15:23.066Z,59.70
2022-08-07T06:18:10.336Z,59.40
2022-08-07T06:20:51.061Z,58.70
2022-08-07T06:24:38.526Z,58.60
2022-08-07T06:26:17.911Z,58.30
2022-08-07T06:28:50.543Z,58.00
2022-08-07T06:31:24.264Z,58.20
2022-08-07T06:34:11.063Z,57.80
2022-08-07T06:36:41.553Z,57.60
2022-08-07T06:40:13.051Z,57.40
2022-08-07T06:42:07.094Z,57.00
2022-08-07T06:44:57.721Z,57.00
2022-08-07T06:47:27.708Z,57.10
2022-08-07T06:50:08.358Z,56.70
2022-08-07T06:52:45.162Z,56.70
2022-08-07T06:55:31.421Z,56.90
2022-08-07T06:58:10.583Z,56.70
2022-08-07T07:00:55.278Z,56.40
2022-08-07T07:03:47.924Z,56.00
2022-08-07T07:06:14.437Z,55.70
2022-08-07T07:08:52.089Z,55.30
2022-08-07T07:12:08.389Z,55.80
2022-08-07T07:14:10.052Z,56.60
2022-08-07T07:16:49.542Z,55.70
2022-08-07T07:19:54.713Z,55.70
2022-08-07T07:22:36.435Z,55.40
2022-08-07T07:26:30.591Z,55.60
2022-08-07T07:28:02.396Z,56.30
2022-08-07T07:30:38.721Z,55.20
2022-08-07T07:33:11.880Z,55.50
2022-08-07T07:36:03.962Z,55.50
2022-08-07T07:38:33.519Z,54.80
2022-08-07T07:41:05.340Z,55.80
2022-08-07T07:44:14.274Z,55.00
2022-08-07T07:46:39.874Z,55.10
2022-08-07T07:50:34.813Z,54.40
2022-08-07T07:52:12.729Z,54.30
2022-08-07T07:54:50.862Z,54.70
2022-08-07T07:57:43.719Z,55.00
2022-08-07T08:00:12.166Z,54.50
2022-08-07T08:03:05.341Z,54.50
2022-08-07T08:05:53.846Z,54.60
2022-08-07T08:08:35.339Z,54.70
2022-08-07T08:11:08.001Z,55.10
2022-08-07T08:13:54.332Z,54.80
2022-08-07T08:16:30.048Z,54.80
2022-08-07T08:19:17.260Z,54.90
2022-08-07T08:22:07.827Z,55.00
2022-08-07T08:25:04.438Z,55.20
2022-08-07T08:27:56.388Z,54.90
2022-08-07T08:30:27.969Z,54.90
2022-08-07T08:32:59.940Z,55.00
2022-08-07T08:35:38.978Z,55.90
2022-08-07T08:38:09.601Z,55.60
2022-08-07T08:40:43.766Z,55.00
2022-08-07T08:43:20.788Z,55.50
2022-08-07T08:46:09.143Z,55.90
2022-08-07T08:48:41.731Z,55.10
2022-08-07T08:51:26.036Z,55.20
2022-08-07T08:54:16.851Z,55.40
2022-08-07T08:56:50.899Z,56.10
2022-08-07T08:59:27.223Z,55.90
2022-08-07T09:02:01.425Z,55.80
2022-08-07T09:04:42.263Z,56.00
2022-08-07T09:07:23.265Z,55.70
2022-08-07T09:10:03.298Z,56.10
2022-08-07T09:12:53.289Z,56.50
2022-08-07T09:16:21.759Z,56.40
2022-08-07T09:18:52.894Z,56.60
2022-08-07T09:22:23.131Z,56.80
2022-08-07T09:24:58.904Z,56.60
2022-08-07T09:27:54.607Z,56.80
2022-08-07T09:30:48.181Z,56.50
2022-08-07T09:33:52.423Z,56.90
2022-08-07T09:36:35.646Z,56.60
2022-08-07T09:39:54.190Z,56.40
2022-08-07T09:42:28.343Z,56.60
2022-08-07T09:47:25.075Z,57.20
2022-08-07T09:48:19.228Z,57.20
2022-08-07T09:50:57.035Z,56.70
2022-08-07T09:53:41.226Z,57.60
2022-08-07T09:56:44.077Z,57.30
2022-08-07T09:59:44.704Z,57.60
2022-08-07T10:02:45.117Z,57.30
2022-08-07T10:05:59.875Z,57.30
2022-08-07T10:08:52.352Z,57.40
2022-08-07T10:12:01.723Z,57.00
2022-08-07T10:15:04.694Z,57.20
2022-08-07T10:18:01.293Z,57.20
2022-08-07T10:20:50.344Z,56.00
2022-08-07T10:24:05.649Z,55.30
2022-08-07T10:26:44.226Z,55.70
2022-08-07T10:29:43.218Z,54.30
2022-08-07T10:32:52.211Z,54.50
2022-08-07T10:35:56.562Z,54.80
2022-08-07T10:38:48.417Z,54.20
2022-08-07T10:41:51.790Z,54.80
2022-08-07T10:44:19.266Z,53.90
2022-08-07T10:47:11.546Z,53.80
2022-08-07T10:49:50.911Z,53.60
2022-08-07T10:52:31.847Z,52.20
2022-08-07T10:55:26.523Z,51.00
2022-08-07T10:58:11.595Z,51.60
2022-08-07T11:00:50.552Z,51.00
2022-08-07T11:03:37.648Z,49.90
2022-08-07T11:06:26.909Z,49.90
2022-08-07T11:09:02.747Z,50.10
2022-08-07T11:11:37.585Z,49.70
2022-08-07T11:14:45.308Z,49.40
2022-08-07T11:17:09.113Z,49.50
2022-08-07T11:19:41.018Z,48.90
2022-08-07T11:22:26.622Z,49.40
2022-08-07T11:25:07.533Z,49.20
2022-08-07T11:28:03.246Z,48.10
2022-08-07T11:30:42.227Z,49.00
2022-08-07T11:33:19.851Z,47.90
2022-08-07T11:36:25.192Z,48.10
2022-08-07T11:39:07.276Z,48.60
2022-08-07T11:42:01.955Z,48.40
2022-08-07T11:44:52.090Z,47.90
2022-08-07T11:47:39.180Z,47.50
2022-08-07T11:50:48.821Z,47.60
2022-08-07T11:53:37.878Z,47.00
2022-08-07T11:56:28.338Z,47.40
2022-08-07T12:00:08.844Z,46.60
2022-08-07T12:02:20.714Z,46.40
2022-08-07T12:05:28.921Z,46.20
2022-08-07T12:08:07.521Z,46.80
2022-08-07T12:11:08.162Z,46.40
2022-08-07T12:13:51.542Z,46.20
2022-08-07T12:16:30.492Z,45.70
2022-08-07T12:19:21.475Z,45.50
2022-08-07T12:22:39.273Z,45.60
2022-08-07T12:25:07.671Z,44.70
2022-08-07T12:28:08.589Z,44.40
2022-08-07T12:30:34.065Z,44.00
2022-08-07T12:33:18.855Z,43.30
2022-08-07T12:35:58.197Z,43.60
2022-08-07T12:38:36.759Z,43.60
2022-08-07T12:41:10.003Z,42.30
2022-08-07T12:44:02.677Z,42.90
2022-08-07T12:46:41.085Z,42.40
2022-08-07T12:49:25.888Z,42.50
2022-08-07T12:52:14.682Z,41.60
2022-08-07T12:54:57.312Z,41.70
2022-08-07T12:57:59.246Z,41.50
2022-08-07T13:00:32.734Z,41.50
2022-08-07T13:03:23.002Z,40.60
2022-08-07T13:06:26.902Z,40.10
2022-08-07T13:10:11.032Z,40.20
2022-08-07T13:12:10.232Z,40.80
2022-08-07T13:14:51.417Z,41.00
2022-08-07T13:17:40.082Z,40.80
2022-08-07T13:20:17.005Z,40.40
2022-08-07T13:22:53.363Z,41.00
2022-08-07T13:25:30.744Z,40.70
2022-08-07T13:28:10.806Z,40.60
2022-08-07T13:30:53.250Z,40.00
2022-08-07T13:34:30.971Z,39.90
2022-08-07T13:36:31.612Z,39.30
2022-08-07T13:39:28.239Z,39.50
2022-08-07T13:42:02.686Z,39.10
2022-08-07T13:44:37.165Z,38.00
2022-08-07T13:47:09.467Z,38.50
2022-08-07T13:50:35.436Z,38.20
2022-08-07T13:52:38.063Z,38.40
2022-08-07T13:55:19.249Z,37.30
2022-08-07T13:58:27.812Z,38.00
2022-08-07T14:01:00.798Z,38.50
2022-08-07T14:04:05.117Z,38.10
2022-08-07T14:06:33.502Z,38.00
2022-08-07T14:09:04.712Z,37.70
2022-08-07T14:11:53.493Z,37.70
2022-08-07T14:14:32.949Z,37.70
2022-08-07T14:17:13.005Z,37.20
2022-08-07T14:20:40.551Z,37.10
2022-08-07T14:22:48.326Z,37.30
2022-08-07T14:25:18.598Z,36.80
2022-08-07T14:28:10.440Z,37.00
2022-08-07T14:30:40.865Z,36.70
2022-08-07T14:33:10.083Z,37.30
2022-08-07T14:35:47.428Z,37.30
2022-08-07T14:38:30.249Z,37.40
2022-08-07T14:41:04.011Z,37.30
2022-08-07T14:43:58.780Z,37.40
2022-08-07T14:46:31.034Z,37.40
2022-08-07T14:49:17.209Z,37.60
2022-08-07T14:52:03.730Z,36.60
2022-08-07T14:54:35.906Z,36.40
2022-08-07T14:57:19.321Z,36.30
2022-08-07T15:00:05.707Z,36.20
2022-08-07T15:02:37.150Z,36.10
2022-08-07T15:05:20.187Z,35.50
2022-08-07T15:07:51.334Z,35.50
2022-08-07T15:10:26.556Z,35.70
2022-08-07T15:13:01.367Z,35.10
2022-08-07T15:15:38.585Z,34.60
2022-08-07T15:21:04.010Z,34.40
2022-08-07T15:25:02.886Z,34.90
2022-08-07T15:26:38.601Z,34.40
2022-08-07T15:30:06.885Z,34.10
2022-08-07T15:32:02.946Z,34.60
2022-08-07T15:34:37.456Z,33.80
2022-08-07T15:37:27.777Z,34.00
2022-08-07T15:39:59.609Z,34.30
2022-08-07T15:48:31.821Z,34.10
2022-08-07T15:53:58.525Z,35.20
2022-08-07T15:56:33.514Z,36.10
2022-08-07T15:59:05.675Z,36.80
2022-08-07T16:01:39.256Z,37.30
2022-08-07T16:04:15.307Z,37.30
2022-08-07T16:06:51.426Z,38.30
2022-08-07T16:09:41.855Z,38.70
2022-08-07T16:12:30.495Z,38.80
2022-08-07T16:15:07.124Z,38.70
2022-08-07T16:18:00.783Z,38.90
2022-08-07T16:21:43.719Z,39.10
2022-08-07T16:23:58.358Z,39.10
2022-08-07T16:26:59.258Z,39.20
2022-08-07T16:30:10.773Z,39.00
2022-08-07T16:32:39.354Z,39.00
2022-08-07T16:35:51.989Z,39.10
2022-08-07T16:38:29.608Z,39.10
2022-08-07T16:41:41.117Z,39.10
2022-08-07T16:45:14.674Z,39.30
2022-08-07T16:48:27.814Z,38.80
2022-08-07T16:52:01.910Z,39.00
2022-08-07T16:54:32.610Z,39.70
2022-08-07T16:57:15.812Z,39.50
2022-08-07T17:00:13.283Z,38.80
2022-08-07T17:03:17.044Z,38.80
2022-08-07T17:06:19.445Z,39.20
2022-08-07T17:09:09.722Z,39.30
2022-08-07T17:12:04.786Z,39.40
2022-08-07T17:14:46.039Z,39.50
2022-08-07T17:17:46.821Z,39.70
2022-08-07T17:20:30.069Z,39.80
2022-08-07T17:23:08.613Z,39.90
2022-08-07T17:25:56.982Z,39.50
2022-08-07T17:28:32.253Z,39.90
2022-08-07T17:31:16.593Z,39.40
2022-08-07T17:34:32.595Z,39.50
2022-08-07T17:36:48.975Z,39.70
2022-08-07T17:39:58.878Z,40.20
2022-08-07T17:42:58.443Z,40.20
2022-08-07T17:45:30.809Z,40.20
2022-08-07T17:48:08.687Z,40.30
2022-08-07T17:50:58.304Z,39.90
2022-08-07T17:53:59.854Z,40.10
2022-08-07T17:56:29.354Z,40.20
2022-08-07T17:59:09.802Z,40.50
2022-08-07T18:01:48.619Z,40.60
2022-08-07T18:04:34.531Z,40.50
2022-08-07T18:07:23.606Z,40.50
2022-08-07T18:10:06.161Z,40.80
2022-08-07T18:13:16.503Z,41.00
2022-08-07T18:15:56.632Z,40.90
2022-08-07T18:18:47.225Z,41.10
2022-08-07T18:21:51.602Z,41.80
2022-08-07T18:24:33.132Z,41.40
2022-08-07T18:27:17.209Z,41.50
2022-08-07T18:30:06.694Z,41.20
2022-08-07T18:33:10.697Z,41.80
2022-08-07T18:35:53.649Z,41.70
2022-08-07T18:38:55.183Z,41.70
2022-08-07T18:41:44.854Z,41.70
2022-08-07T18:44:30.273Z,42.10
2022-08-07T18:47:06.799Z,42.20
2022-08-07T18:50:19.461Z,42.30
2022-08-07T18:52:55.190Z,42.80
2022-08-07T18:55:41.015Z,42.80
2022-08-07T18:58:34.135Z,43.30
2022-08-07T19:02:17.389Z,43.60
2022-08-07T19:04:09.326Z,44.00
2022-08-07T19:06:48.312Z,44.00
2022-08-07T19:09:55.563Z,44.30
2022-08-07T19:12:21.712Z,44.40
2022-08-07T19:16:02.973Z,44.50
2022-08-07T19:18:18.662Z,45.00
2022-08-07T19:21:09.072Z,45.60
2022-08-07T19:23:59.479Z,45.40
2022-08-07T19:26:55.461Z,45.70
2022-08-07T19:31:05.261Z,45.60
2022-08-07T19:32:29.013Z,45.60
2022-08-07T19:35:02.935Z,45.70
2022-08-07T19:37:55.111Z,45.60
2022-08-07T19:40:31.452Z,46.10
2022-08-07T19:43:09.613Z,46.20
2022-08-07T19:46:07.466Z,46.40
2022-08-07T19:48:42.614Z,46.70
2022-08-07T19:51:19.972Z,47.50
2022-08-07T19:54:34.341Z,47.20
2022-08-07T19:57:51.231Z,47.00
2022-08-07T19:59:40.919Z,47.30
2022-08-07T20:02:19.166Z,47.30
2022-08-07T20:04:50.050Z,47.10
2022-08-07T20:07:47.363Z,47.40
2022-08-07T20:10:36.537Z,47.80
2022-08-07T20:13:15.746Z,48.30
2022-08-07T20:15:54.065Z,48.20
2022-08-07T20:18:32.205Z,48.50
2022-08-07T20:21:03.894Z,48.80
2022-08-07T20:23:51.842Z,49.30
2022-08-07T20:26:29.963Z,49.30
2022-08-07T20:29:46.822Z,49.50
2022-08-07T20:32:02.018Z,49.50
2022-08-07T20:34:50.222Z,49.30
2022-08-07T20:37:24.105Z,49.60
2022-08-07T20:40:04.252Z,49.30
2022-08-07T20:42:34.387Z,49.60
2022-08-07T20:45:33.159Z,49.80
2022-08-07T20:47:58.170Z,50.10
2022-08-07T20:50:30.569Z,50.30
2022-08-07T20:52:59.095Z,50.50
2022-08-07T20:55:27.359Z,50.80
2022-08-07T20:58:02.638Z,50.40
2022-08-07T21:00:42.927Z,50.20
2022-08-07T21:03:15.431Z,49.90
2022-08-07T21:05:55.732Z,50.10
2022-08-07T21:08:37.559Z,49.60
2022-08-07T21:11:12.232Z,49.60
2022-08-07T21:14:16.250Z,49.40
2022-08-07T21:16:56.427Z,49.60
2022-08-07T21:19:32.301Z,49.70
2022-08-07T21:22:20.969Z,50.20
2022-08-07T21:25:12.377Z,50.90
2022-08-07T21:27:54.169Z,51.70
